Terminal Aerodrome Forecast
Issued by NWS

Current Version | Previous Version | Text Only | Print | Product List | Glossary On
Versions: 1 2 3 4 5 6 7 8 9 10 11 12 13 14 15 16 17 18 19 20 21 22 23 24 25 26 27 28 29 30 31 32 33 34 35 36 37 38 39 40 41 42 43 44
000
FTUS43 KMKX 221142
TAFENW
TAF
KENW 221142Z 2212/2312 22011KT P6SM -FZRA OVC008
     FM221400 22010G17KT 6SM -RADZ BR OVC006
     FM221600 22011G18KT 6SM -DZ OVC008
     FM230300 21009KT 6SM BR OVC015 WS020/24035KT
     FM230600 20011KT 6SM -RA BR OVC008=

USA.gov is the U.S. government's official web portal to all federal, state and local government web resources and services.